NCAR-RAP Real-Time Weather Data

Output produced by METARs form (06 May 2021  16:25 UTC)
found at http://weather.rap.ucar.edu/surface/
 
KPBF 061553Z AUTO 24006KT 10SM CLR 22/09 A3021 RMK AO2 SLP228 T02170094
KPBF 061453Z AUTO 19005KT 10SM CLR 20/09 A3021 RMK AO2 SLP229 T02000094 50004
KPBF 061353Z AUTO 20003KT 10SM CLR 17/11 A3023 RMK AO2 SLP234 T01720106
KPBF 061253Z AUTO 00000KT 10SM CLR 15/11 A3022 RMK AO2 SLP232 T01500106
KPBF 061153Z AUTO 00000KT 10SM CLR 12/10 A3020 RMK AO2 SLP225 T01220100 10139 20111 53020
KPBF 061053Z AUTO 00000KT 10SM CLR 12/09 A3018 RMK AO2 SLP216 T01170094
KPBF 060953Z AUTO 36003KT 10SM CLR 12/09 A3016 RMK AO2 SLP210 T01170094
KPBF 060853Z AUTO 24003KT 10SM CLR 12/10 A3014 RMK AO2 SLP205 T01220100 58005
KPBF 060753Z AUTO 29003KT 10SM CLR 13/10 A3017 RMK AO2 SLP214 T01280100
KPBF 060653Z AUTO 00000KT 10SM CLR 13/11 A3017 RMK AO2 SLP213 T01330106
KPBF 060553Z AUTO 33003KT 10SM CLR 13/11 A3016 RMK AO2 SLP210 T01330106 10217 20133 402330117 51003
KPBF 060453Z AUTO 00000KT 10SM CLR 15/10 A3015 RMK AO2 SLP208 T01500100
KPBF 060353Z AUTO 00000KT 10SM CLR 16/10 A3016 RMK AO2 SLP212 T01610100
KPBF 060253Z AUTO 00000KT 10SM CLR 16/10 A3015 RMK AO2 SLP209 T01610100 53013
KPBF 060153Z AUTO 00000KT 10SM CLR 17/10 A3013 RMK AO2 SLP201 T01720100